FLA weather

Public forecast

Using degrees Celsius for public forecast. Weather courtesy of forecast.io.

Current aviation weather report (METAR) for Gustavo Artunduaga Paredes Airport

Report is more than 6 hours old.

Retrieved 2020/08/08 20:00 UTC (5 days ago):

SKFL 082000Z 05003KT 9000 -DZ SCT020 BKN120 23/23 A3009

Closest aviation forecast (TAF) to Gustavo Artunduaga Paredes Airport

Forecast is more than 12 hours old.

Closest forecast is Nueva Loja Airport, 119.1 nm (220.6 km) SW. Retrieved 2018/09/09 12:03 UTC (2 years ago):

TAF TAF SCDA 091040Z 0912/1012 19004KT 9999 OVC020 TX18/0917Z TN16/1006ZLVA0571 091200 GG EBBRYZYX EBBRYZYZ EGGYYBYA KMKMYTYX KWBCYMYX MPLBYFYX MPTOYMYX 091200 SEQUYZYX SAEQ01 SEQU 091200 RRB METAR SENL 091200Z 36002KT 9999 SCT030 BKN100 22/21 Q1013 RMK A2994